createdAt,value
2022-11-10T00:07:37.127Z,5.19
2022-11-10T00:16:37.274Z,5.20
2022-11-10T00:25:20.965Z,5.15
2022-11-10T00:34:02.407Z,4.92
2022-11-10T00:42:43.807Z,4.81
2022-11-10T00:51:27.677Z,4.88
2022-11-10T01:00:21.588Z,4.98
2022-11-10T01:09:09.099Z,4.92
2022-11-10T01:17:51.798Z,4.90
2022-11-10T01:26:43.051Z,4.85
2022-11-10T01:35:31.457Z,4.82
2022-11-10T01:44:22.168Z,4.93
2022-11-10T01:53:07.228Z,4.98
2022-11-10T02:01:50.386Z,4.95
2022-11-10T02:10:31.814Z,4.96
2022-11-10T02:19:16.710Z,4.86
2022-11-10T02:27:58.027Z,4.77
2022-11-10T02:36:39.392Z,4.83
2022-11-10T02:45:20.997Z,4.87
2022-11-10T02:54:02.396Z,4.88
2022-11-10T03:02:44.472Z,5.01
2022-11-10T03:11:31.832Z,5.09
2022-11-10T03:20:14.130Z,5.12
2022-11-10T03:28:55.960Z,5.16
2022-11-10T03:37:37.636Z,5.18
2022-11-10T03:46:18.976Z,5.16
2022-11-10T03:55:03.378Z,5.22
2022-11-10T04:03:50.148Z,5.27
2022-11-10T04:12:51.518Z,5.30
2022-11-10T04:21:32.754Z,5.47
2022-11-10T04:30:13.965Z,5.61
2022-11-10T04:38:55.933Z,5.66
2022-11-10T04:47:37.418Z,5.78
2022-11-10T04:56:21.173Z,5.90
2022-11-10T05:05:03.517Z,5.96
2022-11-10T05:13:45.643Z,6.17
2022-11-10T05:22:27.092Z,6.35
2022-11-10T05:31:09.163Z,6.36
2022-11-10T05:39:50.393Z,6.46
2022-11-10T05:48:32.023Z,6.39
2022-11-10T05:57:13.640Z,6.35
2022-11-10T06:05:55.054Z,6.47
2022-11-10T06:14:36.628Z,6.56
2022-11-10T06:23:18.062Z,6.61
2022-11-10T06:31:59.742Z,6.70
2022-11-10T06:40:41.413Z,6.71
2022-11-10T06:49:22.956Z,6.77
2022-11-10T06:58:04.672Z,6.81
2022-11-10T07:06:47.867Z,6.87
2022-11-10T07:15:30.432Z,6.99
2022-11-10T07:24:12.102Z,7.06
2022-11-10T07:33:12.519Z,7.15
2022-11-10T07:41:53.780Z,7.36
2022-11-10T07:50:37.946Z,7.48
2022-11-10T07:59:19.677Z,7.53
2022-11-10T08:08:05.032Z,7.65
2022-11-10T08:16:46.574Z,7.72
2022-11-10T08:25:34.439Z,7.74
2022-11-10T08:34:16.274Z,7.94
2022-11-10T08:42:59.739Z,8.12
2022-11-10T08:51:41.416Z,8.23
2022-11-10T09:00:22.847Z,8.40
2022-11-10T09:09:04.474Z,8.61
2022-11-10T09:17:46.119Z,8.66
2022-11-10T09:26:27.590Z,8.80
2022-11-10T09:35:09.244Z,9.00
2022-11-10T09:44:16.321Z,9.08
2022-11-10T09:52:59.211Z,9.30
2022-11-10T10:01:49.382Z,9.39
2022-11-10T10:10:54.641Z,9.37
2022-11-10T10:19:42.311Z,9.45
2022-11-10T10:28:30.767Z,9.41
2022-11-10T10:37:36.839Z,9.43
2022-11-10T10:46:27.659Z,9.49
2022-11-10T10:55:13.208Z,9.61
2022-11-10T11:03:55.238Z,9.95
2022-11-10T11:12:37.240Z,10.14
2022-11-10T11:21:33.675Z,10.14
2022-11-10T11:30:18.544Z,10.27
2022-11-10T11:39:40.669Z,10.55
2022-11-10T11:48:28.297Z,10.79
2022-11-10T11:57:51.029Z,10.86
2022-11-10T12:07:20.714Z,10.70
2022-11-10T12:16:15.781Z,10.75
2022-11-10T12:24:59.958Z,10.91
2022-11-10T12:33:48.380Z,11.27
2022-11-10T12:42:32.992Z,11.23
2022-11-10T12:51:26.916Z,11.13
2022-11-10T13:00:32.616Z,11.31
2022-11-10T13:09:26.926Z,11.49
2022-11-10T13:18:22.279Z,11.36
2022-11-10T13:27:10.236Z,11.41
2022-11-10T13:35:56.752Z,11.30
2022-11-10T13:44:40.901Z,11.23
2022-11-10T13:53:44.086Z,11.20
2022-11-10T14:02:34.903Z,11.15
2022-11-10T14:11:25.516Z,11.16
2022-11-10T14:20:22.598Z,11.18
2022-11-10T14:29:30.538Z,10.88
2022-11-10T14:38:20.850Z,10.78
2022-11-10T14:47:31.259Z,10.78
2022-11-10T14:56:42.740Z,10.72
2022-11-10T15:05:25.534Z,10.69
2022-11-10T15:14:42.489Z,10.63
2022-11-10T15:23:34.073Z,10.41
2022-11-10T15:32:19.994Z,10.23
2022-11-10T15:41:12.480Z,10.16
2022-11-10T15:49:54.473Z,10.06
2022-11-10T15:58:37.706Z,10.08
2022-11-10T16:07:19.483Z,10.03
2022-11-10T16:16:01.429Z,9.94
2022-11-10T16:24:45.314Z,9.86
2022-11-10T16:33:29.173Z,9.70
2022-11-10T16:42:10.423Z,9.51
2022-11-10T16:50:54.340Z,9.53
2022-11-10T16:59:36.032Z,9.61
2022-11-10T17:08:26.177Z,9.58
2022-11-10T17:17:20.321Z,9.54
2022-11-10T17:26:05.317Z,9.49
2022-11-10T17:34:48.801Z,9.30
2022-11-10T17:43:30.708Z,9.22
2022-11-10T17:52:18.205Z,9.19
2022-11-10T18:01:00.081Z,9.19
2022-11-10T18:09:41.760Z,9.26
2022-11-10T18:18:23.456Z,9.26
2022-11-10T18:27:04.912Z,9.15
2022-11-10T18:35:46.320Z,9.09
2022-11-10T18:44:29.719Z,8.94
2022-11-10T18:53:11.961Z,8.74
2022-11-10T19:01:53.954Z,8.61
2022-11-10T19:10:41.356Z,8.56
2022-11-10T19:19:22.807Z,8.41
2022-11-10T19:28:04.885Z,8.30
2022-11-10T19:36:46.996Z,8.24
2022-11-10T19:45:28.591Z,8.11
2022-11-10T19:54:13.412Z,8.00
2022-11-10T20:02:54.883Z,7.87
2022-11-10T20:11:36.689Z,7.67
2022-11-10T20:20:19.333Z,7.58
2022-11-10T20:29:01.433Z,7.48
2022-11-10T20:37:43.044Z,7.36
2022-11-10T20:55:51.484Z,7.21
2022-11-10T21:04:27.455Z,7.09
2022-11-10T21:13:08.902Z,6.99
2022-11-10T21:21:51.897Z,6.94
2022-11-10T21:30:33.762Z,6.78
2022-11-10T21:39:15.162Z,6.75
2022-11-10T21:48:01.160Z,6.69
2022-11-10T21:56:42.778Z,6.58
2022-11-10T22:05:24.754Z,6.55
2022-11-10T22:14:31.998Z,6.51
2022-11-10T22:23:13.816Z,6.44
2022-11-10T22:31:55.954Z,6.43
2022-11-10T22:41:06.534Z,6.33
2022-11-10T22:49:48.085Z,6.18
2022-11-10T22:58:30.066Z,6.17
2022-11-10T23:07:12.652Z,6.17
2022-11-10T23:15:58.805Z,6.04
2022-11-10T23:24:40.306Z,5.92
2022-11-10T23:33:22.082Z,5.80
2022-11-10T23:42:03.803Z,5.70
2022-11-10T23:50:45.666Z,5.69
2022-11-10T23:59:27.270Z,5.70
